createdAt,value
2023-04-29T00:03:35.531Z,9.25
2023-04-29T00:06:22.496Z,4.25
2023-04-29T00:08:52.320Z,5.00
2023-04-29T00:14:06.317Z,7.50
2023-04-29T00:16:36.940Z,2.75
2023-04-29T00:19:09.547Z,4.75
2023-04-29T00:21:41.420Z,3.75
2023-04-29T00:24:25.711Z,8.00
2023-04-29T00:27:13.326Z,7.25
2023-04-29T00:29:46.208Z,4.75
2023-04-29T00:32:16.453Z,8.00
2023-04-29T00:34:46.852Z,4.00
2023-04-29T00:37:19.749Z,6.25
2023-04-29T00:39:52.041Z,8.75
2023-04-29T00:42:24.170Z,8.00
2023-04-29T00:45:06.494Z,8.00
2023-04-29T00:50:39.048Z,8.00
2023-04-29T00:53:32.470Z,7.25
2023-04-29T00:56:24.029Z,4.75
2023-04-29T00:58:57.410Z,4.50
2023-04-29T01:01:45.086Z,8.50
2023-04-29T01:04:37.124Z,5.00
2023-04-29T01:07:21.390Z,3.00
2023-04-29T01:10:23.752Z,4.50
2023-04-29T01:15:53.692Z,7.00
2023-04-29T01:18:46.435Z,8.50
2023-04-29T01:21:21.480Z,5.25
2023-04-29T01:23:55.171Z,6.50
2023-04-29T01:26:30.860Z,4.00
2023-04-29T01:29:27.932Z,3.00
2023-04-29T01:32:08.558Z,4.50
2023-04-29T01:37:40.238Z,5.00
2023-04-29T01:40:54.014Z,4.50
2023-04-29T01:43:26.649Z,4.75
2023-04-29T01:46:00.377Z,7.00
2023-04-29T01:48:34.148Z,2.50
2023-04-29T01:51:04.764Z,5.00
2023-04-29T01:53:36.899Z,2.25
2023-04-29T01:59:03.608Z,4.25
2023-04-29T02:01:35.144Z,3.00
2023-04-29T02:04:06.972Z,4.00
2023-04-29T02:06:38.603Z,5.00
2023-04-29T02:09:09.376Z,4.50
2023-04-29T02:11:42.205Z,4.00
2023-04-29T02:14:12.576Z,3.00
2023-04-29T02:16:45.778Z,6.25
2023-04-29T02:19:18.034Z,6.50
2023-04-29T02:21:50.792Z,3.25
2023-04-29T02:24:21.748Z,4.00
2023-04-29T02:26:54.935Z,4.00
2023-04-29T02:29:33.113Z,3.25
2023-04-29T02:32:05.228Z,4.00
2023-04-29T02:34:54.249Z,4.50
2023-04-29T02:37:24.662Z,4.50
2023-04-29T02:39:58.121Z,3.50
2023-04-29T02:42:30.310Z,4.50
2023-04-29T02:45:00.610Z,4.75
2023-04-29T02:47:35.634Z,6.50
2023-04-29T02:50:09.114Z,5.00
2023-04-29T02:52:40.112Z,3.00
2023-04-29T02:55:10.737Z,3.00
2023-04-29T02:57:41.090Z,2.50
2023-04-29T03:00:11.848Z,3.00
2023-04-29T03:02:42.550Z,4.00
2023-04-29T03:05:12.996Z,4.50
2023-04-29T03:07:43.603Z,4.75
2023-04-29T03:10:14.020Z,3.25
2023-04-29T03:12:46.278Z,4.00
2023-04-29T03:15:16.611Z,4.50
2023-04-29T03:17:46.982Z,8.00
2023-04-29T03:20:17.452Z,6.75
2023-04-29T03:22:47.770Z,4.25
2023-04-29T03:25:18.437Z,7.50
2023-04-29T03:27:48.781Z,6.75
2023-04-29T03:30:19.111Z,7.00
2023-04-29T03:32:49.599Z,7.25
2023-04-29T03:35:19.987Z,7.00
2023-04-29T03:37:50.462Z,8.00
2023-04-29T03:40:20.864Z,8.00
2023-04-29T03:42:55.436Z,9.00
2023-04-29T03:45:25.849Z,11.75
2023-04-29T03:51:04.843Z,9.25
2023-04-29T03:53:35.376Z,13.25
2023-04-29T03:56:06.043Z,11.00
2023-04-29T03:58:40.207Z,13.75
2023-04-29T04:01:11.009Z,13.75
2023-04-29T04:03:41.689Z,13.00
2023-04-29T04:06:13.461Z,13.50
2023-04-29T04:08:43.930Z,11.75
2023-04-29T04:11:14.496Z,12.50
2023-04-29T04:13:44.995Z,11.50
2023-04-29T04:16:15.378Z,11.75
2023-04-29T04:18:47.202Z,11.00
2023-04-29T04:21:17.611Z,16.50
2023-04-29T04:23:51.034Z,17.50
2023-04-29T04:26:25.861Z,15.75
2023-04-29T04:28:57.586Z,18.50
2023-04-29T04:31:29.406Z,17.25
2023-04-29T04:34:01.948Z,19.00
2023-04-29T04:36:35.146Z,17.00
2023-04-29T04:39:05.469Z,13.25
2023-04-29T04:41:36.161Z,12.75
2023-04-29T04:44:09.397Z,10.25
2023-04-29T04:46:41.339Z,11.75
2023-04-29T04:49:11.859Z,13.25
2023-04-29T04:51:47.055Z,20.50
2023-04-29T04:54:17.528Z,17.50
2023-04-29T04:56:48.031Z,20.00
2023-04-29T04:59:18.355Z,18.75
2023-04-29T05:01:48.671Z,14.25
2023-04-29T05:04:19.175Z,13.00
2023-04-29T05:06:49.605Z,14.75
2023-04-29T05:09:20.084Z,17.50
2023-04-29T05:11:50.548Z,18.50
2023-04-29T05:14:22.168Z,14.75
2023-04-29T05:16:58.845Z,12.75
2023-04-29T05:19:32.764Z,15.00
2023-04-29T05:22:05.583Z,13.50
2023-04-29T05:24:36.004Z,11.75
2023-04-29T05:27:08.335Z,12.25
2023-04-29T05:29:40.201Z,12.25
2023-04-29T05:32:10.495Z,15.75
2023-04-29T05:34:43.386Z,13.50
2023-04-29T05:37:13.576Z,12.00
2023-04-29T05:39:44.035Z,7.00
2023-04-29T05:42:14.367Z,12.00
2023-04-29T05:44:44.746Z,13.00
2023-04-29T05:47:15.672Z,6.50
2023-04-29T05:50:01.437Z,7.00
2023-04-29T05:52:29.526Z,6.75
2023-04-29T05:55:03.416Z,5.25
2023-04-29T05:57:35.956Z,6.50
2023-04-29T06:00:07.106Z,6.25
2023-04-29T06:02:47.249Z,6.75
2023-04-29T06:05:11.457Z,6.50
2023-04-29T06:07:51.067Z,5.00
2023-04-29T06:10:21.646Z,6.50
2023-04-29T06:13:01.214Z,3.75
2023-04-29T06:15:33.870Z,4.25
2023-04-29T06:18:10.212Z,3.75
2023-04-29T06:20:40.450Z,5.25
2023-04-29T06:23:10.874Z,3.50
2023-04-29T06:25:44.480Z,4.50
2023-04-29T06:28:14.799Z,2.00
2023-04-29T06:30:45.173Z,3.00
2023-04-29T06:33:15.730Z,2.75
2023-04-29T06:35:46.384Z,3.00
2023-04-29T06:38:19.512Z,4.50
2023-04-29T06:40:52.093Z,3.00
2023-04-29T06:43:22.328Z,3.50
2023-04-29T06:45:52.671Z,3.00
2023-04-29T06:48:23.393Z,3.25
2023-04-29T06:50:58.600Z,3.25
2023-04-29T06:53:44.087Z,3.50
2023-04-29T06:56:16.688Z,5.75
2023-04-29T06:58:56.309Z,7.25
2023-04-29T07:01:27.431Z,4.25
2023-04-29T07:04:03.421Z,9.00
2023-04-29T07:06:34.109Z,4.75
2023-04-29T07:09:10.517Z,4.25
2023-04-29T07:11:41.670Z,5.00
2023-04-29T07:14:11.997Z,2.25
2023-04-29T07:17:00.450Z,3.00
2023-04-29T07:19:17.761Z,3.25
2023-04-29T07:25:01.918Z,8.50
2023-04-29T07:27:34.616Z,5.75
2023-04-29T07:30:06.915Z,3.50
2023-04-29T07:32:37.548Z,4.00
2023-04-29T07:35:21.269Z,3.50
2023-04-29T07:37:58.730Z,3.50
2023-04-29T07:40:26.164Z,5.50
2023-04-29T07:42:59.789Z,5.00
2023-04-29T07:45:33.034Z,5.00
2023-04-29T07:48:03.553Z,5.00
2023-04-29T07:50:37.799Z,4.50
2023-04-29T07:53:09.850Z,3.00
2023-04-29T07:55:40.277Z,5.25
2023-04-29T07:58:18.206Z,4.00
2023-04-29T08:00:50.524Z,5.75
2023-04-29T08:03:21.236Z,3.50
2023-04-29T08:05:51.913Z,4.50
2023-04-29T08:08:22.380Z,3.00
2023-04-29T08:10:52.782Z,7.25
2023-04-29T08:13:23.154Z,3.75
2023-04-29T08:15:53.585Z,5.50
2023-04-29T08:18:26.182Z,4.00
2023-04-29T08:20:56.569Z,3.00
2023-04-29T08:23:27.016Z,3.00
2023-04-29T08:26:24.193Z,2.00
2023-04-29T08:28:54.593Z,3.00
2023-04-29T08:31:25.098Z,4.00
2023-04-29T08:33:55.494Z,4.00
2023-04-29T08:36:27.048Z,2.25
2023-04-29T08:38:57.531Z,5.25
2023-04-29T08:41:30.860Z,7.50
2023-04-29T08:44:01.451Z,4.75
2023-04-29T08:46:32.777Z,3.00
2023-04-29T08:49:06.560Z,5.00
2023-04-29T08:51:38.627Z,5.00
2023-04-29T08:54:11.767Z,4.00
2023-04-29T08:56:45.312Z,4.25
2023-04-29T08:59:21.323Z,3.75
2023-04-29T09:01:53.690Z,5.75
2023-04-29T09:04:39.831Z,3.40
2023-04-29T09:07:13.920Z,2.50
2023-04-29T09:13:24.733Z,3.20
2023-04-29T09:15:57.092Z,4.00
2023-04-29T09:18:47.362Z,5.00
2023-04-29T09:21:23.071Z,3.60
2023-04-29T09:23:57.761Z,4.00
2023-04-29T09:26:30.058Z,3.75
2023-04-29T09:29:15.515Z,6.00
2023-04-29T09:31:47.004Z,3.75
2023-04-29T09:34:17.607Z,3.50
2023-04-29T09:36:50.541Z,3.25
2023-04-29T09:39:24.317Z,3.75
2023-04-29T09:41:57.624Z,3.50
2023-04-29T09:44:34.668Z,2.25
2023-04-29T09:47:09.927Z,3.00
2023-04-29T09:49:43.277Z,3.75
2023-04-29T09:52:17.229Z,4.00
2023-04-29T09:54:47.738Z,2.00
2023-04-29T09:57:19.832Z,5.25
2023-04-29T09:59:50.319Z,3.00
2023-04-29T10:02:22.707Z,5.75
2023-04-29T10:04:56.616Z,3.50
2023-04-29T10:07:33.209Z,5.00
2023-04-29T10:10:06.342Z,3.00
2023-04-29T10:12:37.815Z,5.00
2023-04-29T10:15:13.434Z,20.75
2023-04-29T10:17:52.526Z,5.50
2023-04-29T10:20:25.373Z,4.00
2023-04-29T10:22:56.815Z,10.50
2023-04-29T10:25:27.734Z,4.00
2023-04-29T10:28:04.896Z,6.50
2023-04-29T10:30:37.379Z,7.00
2023-04-29T10:33:10.479Z,4.50
2023-04-29T10:35:43.030Z,5.00
2023-04-29T10:38:22.523Z,4.20
2023-04-29T10:40:57.217Z,2.75
2023-04-29T10:43:27.872Z,3.50
2023-04-29T10:49:08.679Z,2.00
2023-04-29T10:51:46.882Z,2.50
2023-04-29T10:54:19.017Z,6.75
2023-04-29T10:56:53.308Z,4.75
2023-04-29T10:59:45.451Z,4.00
2023-04-29T11:02:18.423Z,3.00
2023-04-29T11:05:07.779Z,4.25
2023-04-29T11:07:38.416Z,5.75
2023-04-29T11:10:15.126Z,3.75
2023-04-29T11:12:46.138Z,3.50
2023-04-29T11:15:18.422Z,4.00
2023-04-29T11:17:54.074Z,3.00
2023-04-29T11:20:25.322Z,5.00
2023-04-29T11:22:56.025Z,3.25
2023-04-29T11:25:27.061Z,3.75
2023-04-29T11:27:58.258Z,3.50
2023-04-29T11:30:30.030Z,4.25
2023-04-29T11:33:00.553Z,4.00
2023-04-29T11:35:32.172Z,3.00
2023-04-29T11:38:02.812Z,3.25
2023-04-29T11:40:33.847Z,4.00
2023-04-29T11:43:06.349Z,5.75
2023-04-29T11:45:36.841Z,4.75
2023-04-29T11:48:07.317Z,4.00
2023-04-29T11:50:37.736Z,1.75
2023-04-29T11:53:09.042Z,3.50
2023-04-29T11:55:41.127Z,2.00
2023-04-29T11:58:32.308Z,4.25
2023-04-29T12:01:05.283Z,5.00
2023-04-29T12:03:35.861Z,3.00
2023-04-29T12:06:10.697Z,2.00
2023-04-29T12:08:41.132Z,3.75
2023-04-29T12:11:11.605Z,4.00
2023-04-29T12:13:42.631Z,6.00
2023-04-29T12:19:24.140Z,4.75
2023-04-29T12:21:54.699Z,1.50
2023-04-29T12:24:26.070Z,4.50
2023-04-29T12:26:57.749Z,5.00
2023-04-29T12:29:28.083Z,3.50
2023-04-29T12:32:03.734Z,6.00
2023-04-29T12:34:41.723Z,3.75
2023-04-29T12:37:17.131Z,3.25
2023-04-29T12:39:49.045Z,3.00
2023-04-29T12:42:19.592Z,3.75
2023-04-29T12:44:50.120Z,4.00
2023-04-29T12:47:26.952Z,3.00
2023-04-29T12:49:58.284Z,3.00
2023-04-29T12:53:08.844Z,5.25
2023-04-29T12:55:27.563Z,3.25
2023-04-29T12:58:27.353Z,6.00
2023-04-29T13:01:07.691Z,4.50
2023-04-29T13:03:39.988Z,6.00
2023-04-29T13:06:14.852Z,3.00
2023-04-29T13:11:34.642Z,4.00
2023-04-29T13:14:06.749Z,3.75
2023-04-29T13:16:44.952Z,4.00
2023-04-29T13:21:55.229Z,3.00
2023-04-29T13:24:25.465Z,7.00
2023-04-29T13:26:55.961Z,4.00
2023-04-29T13:29:34.078Z,4.00
2023-04-29T13:32:06.089Z,4.00
2023-04-29T13:34:38.152Z,3.00
2023-04-29T13:37:12.971Z,3.00
2023-04-29T13:39:47.377Z,5.00
2023-04-29T13:42:20.403Z,4.00
2023-04-29T13:44:53.142Z,6.75
2023-04-29T13:47:26.783Z,4.00
2023-04-29T13:50:33.933Z,4.75
2023-04-29T14:05:22.541Z,5.25
2023-04-29T14:07:53.288Z,6.25
2023-04-29T14:10:51.248Z,7.50
2023-04-29T14:13:36.151Z,4.50
2023-04-29T14:16:06.943Z,5.00
2023-04-29T14:18:39.283Z,7.00
2023-04-29T14:21:17.060Z,5.00
2023-04-29T14:23:47.478Z,4.75
2023-04-29T14:26:27.935Z,3.00
2023-04-29T14:28:50.123Z,2.50
2023-04-29T14:31:20.619Z,4.00
2023-04-29T14:33:55.394Z,4.25
2023-04-29T14:36:26.515Z,4.00
2023-04-29T14:38:57.334Z,3.25
2023-04-29T14:41:29.209Z,2.00
2023-04-29T14:44:02.745Z,3.50
2023-04-29T14:46:38.230Z,2.00
2023-04-29T14:49:10.967Z,2.75
2023-04-29T14:51:41.363Z,3.00
2023-04-29T14:54:18.239Z,3.75
2023-04-29T14:56:48.855Z,3.00
2023-04-29T14:59:21.819Z,2.50
2023-04-29T15:01:54.948Z,2.00
2023-04-29T15:04:25.708Z,3.75
2023-04-29T15:06:58.103Z,3.75
2023-04-29T15:09:32.649Z,2.50
2023-04-29T15:12:03.054Z,2.75
2023-04-29T15:14:36.183Z,2.75
2023-04-29T15:17:06.863Z,1.75
2023-04-29T15:19:37.379Z,1.00
2023-04-29T15:22:09.293Z,2.75
2023-04-29T15:24:41.388Z,2.00
2023-04-29T15:27:11.929Z,4.00
2023-04-29T15:29:42.359Z,2.25
2023-04-29T15:32:12.842Z,3.25
2023-04-29T15:34:43.376Z,3.00
2023-04-29T15:37:13.900Z,4.00
2023-04-29T15:39:44.299Z,4.50
2023-04-29T15:42:16.864Z,3.25
2023-04-29T15:47:45.113Z,3.50
2023-04-29T15:50:21.351Z,4.00
2023-04-29T15:52:54.360Z,4.25
2023-04-29T15:55:27.449Z,4.00
2023-04-29T15:58:15.963Z,4.50
2023-04-29T16:06:45.401Z,6.75
2023-04-29T16:09:20.423Z,4.00
2023-04-29T16:11:54.483Z,4.50
2023-04-29T16:14:31.013Z,7.25
2023-04-29T16:17:11.394Z,4.00
2023-04-29T16:19:42.100Z,4.00
2023-04-29T16:22:15.344Z,3.25
2023-04-29T16:24:47.812Z,4.00
2023-04-29T16:27:19.154Z,6.00
2023-04-29T16:29:49.394Z,4.00
2023-04-29T16:32:19.885Z,5.75
2023-04-29T16:34:50.473Z,4.25
2023-04-29T16:37:21.265Z,6.25
2023-04-29T16:39:51.901Z,5.00
2023-04-29T16:42:22.592Z,4.00
2023-04-29T16:44:53.583Z,3.00
2023-04-29T16:47:24.470Z,2.50
2023-04-29T16:49:55.127Z,4.00
2023-04-29T16:52:25.772Z,4.75
2023-04-29T16:54:56.387Z,3.00
2023-04-29T16:57:26.752Z,5.00
2023-04-29T16:59:57.286Z,3.50
2023-04-29T17:02:31.304Z,2.75
2023-04-29T17:05:06.745Z,4.50
2023-04-29T17:07:37.465Z,4.00
2023-04-29T17:10:11.415Z,5.75
2023-04-29T17:12:42.205Z,6.25
2023-04-29T17:15:13.002Z,5.00
2023-04-29T17:17:43.614Z,4.00
2023-04-29T17:20:14.416Z,5.00
2023-04-29T17:22:46.492Z,5.75
2023-04-29T17:25:19.573Z,5.00
2023-04-29T17:27:50.115Z,5.00
2023-04-29T17:30:20.499Z,5.00
2023-04-29T17:32:51.148Z,5.00
2023-04-29T17:35:21.711Z,3.00
2023-04-29T17:37:52.066Z,6.00
2023-04-29T17:40:22.801Z,4.25
2023-04-29T17:42:53.442Z,4.00
2023-04-29T17:45:24.635Z,4.00
2023-04-29T17:47:59.067Z,5.00
2023-04-29T17:50:29.730Z,5.25
2023-04-29T17:53:00.279Z,4.75
2023-04-29T17:55:32.620Z,5.50
2023-04-29T17:58:12.521Z,4.00
2023-04-29T18:00:47.081Z,4.75
2023-04-29T18:03:18.206Z,5.00
2023-04-29T18:05:51.394Z,4.75
2023-04-29T18:08:22.092Z,6.50
2023-04-29T18:10:55.981Z,4.75
2023-04-29T18:13:27.332Z,4.00
2023-04-29T18:15:59.416Z,7.00
2023-04-29T18:18:29.889Z,6.00
2023-04-29T18:21:00.291Z,8.25
2023-04-29T18:23:36.554Z,6.75
2023-04-29T18:26:08.612Z,10.25
2023-04-29T18:28:40.408Z,5.25
2023-04-29T18:31:12.285Z,4.75
2023-04-29T18:33:43.990Z,6.00
2023-04-29T18:36:15.123Z,5.25
2023-04-29T18:38:48.448Z,5.50
2023-04-29T18:41:19.551Z,6.25
2023-04-29T18:43:49.961Z,5.00
2023-04-29T18:46:20.426Z,5.75
2023-04-29T18:48:50.906Z,6.50
2023-04-29T18:51:22.672Z,6.75
2023-04-29T18:53:53.121Z,6.00
2023-04-29T18:56:23.649Z,5.00
2023-04-29T18:58:58.009Z,4.75
2023-04-29T19:01:31.525Z,6.00
2023-04-29T19:04:04.835Z,6.00
2023-04-29T19:06:35.378Z,6.25
2023-04-29T19:09:05.854Z,5.50
2023-04-29T19:11:36.329Z,5.00
2023-04-29T19:14:07.264Z,7.00
2023-04-29T19:16:37.802Z,5.50
2023-04-29T19:19:12.230Z,7.25
2023-04-29T19:21:43.846Z,5.25
2023-04-29T19:24:14.451Z,5.25
2023-04-29T19:26:46.397Z,6.25
2023-04-29T19:29:20.104Z,4.75
2023-04-29T19:31:53.503Z,5.50
2023-04-29T19:34:29.184Z,5.75
2023-04-29T19:37:05.512Z,8.50
2023-04-29T19:39:35.939Z,5.50
2023-04-29T19:42:06.298Z,6.75
2023-04-29T19:44:37.123Z,5.75
2023-04-29T19:47:30.576Z,9.50
2023-04-29T19:50:02.526Z,5.75
2023-04-29T19:52:38.190Z,6.00
2023-04-29T19:58:19.200Z,6.00
2023-04-29T20:00:49.740Z,9.00
2023-04-29T20:03:21.964Z,5.00
2023-04-29T20:05:53.069Z,7.50
2023-04-29T20:08:25.755Z,6.00
2023-04-29T20:10:56.183Z,4.75
2023-04-29T20:13:27.346Z,5.50
2023-04-29T20:15:57.847Z,7.25
2023-04-29T20:18:28.399Z,6.75
2023-04-29T20:20:58.713Z,5.00
2023-04-29T20:23:30.648Z,6.00
2023-04-29T20:26:00.857Z,5.25
2023-04-29T20:28:31.492Z,5.50
2023-04-29T20:31:02.129Z,5.00
2023-04-29T20:33:34.824Z,6.00
2023-04-29T20:36:06.273Z,3.50
2023-04-29T20:38:37.526Z,4.25
2023-04-29T20:41:08.042Z,8.25
2023-04-29T20:43:40.011Z,11.00
2023-04-29T20:46:12.530Z,2.00
2023-04-29T20:48:58.080Z,6.00
2023-04-29T20:51:44.369Z,5.75
2023-04-29T20:54:16.144Z,5.75
2023-04-29T20:56:46.532Z,8.50
2023-04-29T20:59:17.130Z,7.00
2023-04-29T21:01:47.687Z,4.50
2023-04-29T21:04:18.497Z,4.25
2023-04-29T21:07:05.938Z,4.75
2023-04-29T21:09:36.517Z,6.00
2023-04-29T21:12:07.171Z,5.75
2023-04-29T21:14:39.434Z,5.50
2023-04-29T21:17:10.478Z,5.75
2023-04-29T21:19:56.390Z,6.50
2023-04-29T21:22:23.026Z,6.00
2023-04-29T21:24:53.509Z,5.75
2023-04-29T21:27:23.907Z,4.00
2023-04-29T21:29:54.529Z,6.00
2023-04-29T21:32:26.648Z,5.50
2023-04-29T21:34:58.826Z,6.00
2023-04-29T21:37:33.806Z,6.00
2023-04-29T21:40:04.689Z,4.75
2023-04-29T21:42:35.918Z,8.75
2023-04-29T21:45:07.195Z,7.75
2023-04-29T21:47:38.866Z,10.00
2023-04-29T21:50:12.755Z,6.00
2023-04-29T21:52:46.298Z,8.50
2023-04-29T21:55:16.640Z,7.25
2023-04-29T21:57:47.169Z,5.75
2023-04-29T22:00:19.031Z,6.50
2023-04-29T22:02:49.655Z,5.00
2023-04-29T22:05:20.111Z,5.50
2023-04-29T22:07:50.484Z,5.50
2023-04-29T22:10:20.913Z,6.00
2023-04-29T22:12:51.817Z,9.00
2023-04-29T22:15:28.764Z,7.00
2023-04-29T22:17:55.022Z,10.00
2023-04-29T22:20:25.729Z,5.00
2023-04-29T22:22:56.225Z,6.00
2023-04-29T22:25:26.581Z,6.00
2023-04-29T22:27:56.888Z,6.00
2023-04-29T22:30:27.259Z,5.50
2023-04-29T22:32:57.733Z,9.00
2023-04-29T22:35:28.327Z,7.00
2023-04-29T22:37:58.925Z,11.25
2023-04-29T22:40:29.666Z,9.50
2023-04-29T22:43:07.616Z,9.00
2023-04-29T22:45:38.254Z,7.75
2023-04-29T22:48:08.950Z,8.25
2023-04-29T22:50:39.777Z,10.00
2023-04-29T22:53:10.150Z,10.50
2023-04-29T22:55:40.552Z,8.50
2023-04-29T22:58:10.960Z,11.00
2023-04-29T23:00:53.153Z,15.50
2023-04-29T23:03:24.277Z,13.25
2023-04-29T23:06:01.510Z,10.00
2023-04-29T23:08:40.744Z,10.00
2023-04-29T23:12:07.954Z,9.25
2023-04-29T23:14:02.445Z,9.00
2023-04-29T23:16:39.030Z,11.00
2023-04-29T23:19:09.438Z,9.50
2023-04-29T23:21:45.727Z,10.25
2023-04-29T23:24:17.957Z,8.50
2023-04-29T23:26:52.158Z,12.00
2023-04-29T23:29:27.878Z,9.00
2023-04-29T23:31:58.261Z,9.25
2023-04-29T23:34:30.155Z,7.75
2023-04-29T23:37:01.079Z,10.00
2023-04-29T23:39:32.959Z,9.75
2023-04-29T23:42:07.386Z,10.75
2023-04-29T23:44:39.069Z,8.00
2023-04-29T23:47:12.137Z,11.00
2023-04-29T23:49:42.448Z,11.75
2023-04-29T23:52:12.771Z,9.25
2023-04-29T23:54:45.313Z,10.00
2023-04-29T23:57:48.960Z,10.50
